createdAt,value
2023-04-27T00:01:12.440Z,61.62
2023-04-27T00:03:41.436Z,62.43
2023-04-27T00:06:10.940Z,60.53
2023-04-27T00:08:38.990Z,60.64
2023-04-27T00:11:07.063Z,61.29
2023-04-27T00:13:34.945Z,62.05
2023-04-27T00:16:03.885Z,61.06
2023-04-27T00:18:31.981Z,61.91
2023-04-27T00:21:01.288Z,61.90
2023-04-27T00:23:30.591Z,60.97
2023-04-27T00:25:58.546Z,61.69
2023-04-27T00:28:26.829Z,61.13
2023-04-27T00:30:56.640Z,61.78
2023-04-27T00:33:26.879Z,61.08
2023-04-27T00:35:55.531Z,63.05
2023-04-27T00:38:23.794Z,63.16
2023-04-27T00:40:53.075Z,63.10
2023-04-27T00:43:21.680Z,63.00
2023-04-27T00:45:49.872Z,63.71
2023-04-27T00:48:17.926Z,63.05
2023-04-27T00:50:48.114Z,61.77
2023-04-27T00:53:16.399Z,62.15
2023-04-27T00:55:44.693Z,62.36
2023-04-27T00:58:13.971Z,63.71
2023-04-27T01:00:42.284Z,64.85
2023-04-27T01:03:13.279Z,66.04
2023-04-27T01:05:41.379Z,66.21
2023-04-27T01:08:09.709Z,65.25
2023-04-27T01:10:38.542Z,65.23
2023-04-27T01:13:06.443Z,64.48
2023-04-27T01:15:35.707Z,64.82
2023-04-27T01:18:04.619Z,65.21
2023-04-27T01:20:32.862Z,65.34
2023-04-27T01:23:01.041Z,64.89
2023-04-27T01:25:30.353Z,65.66
2023-04-27T01:27:58.253Z,66.18
2023-04-27T01:30:28.487Z,66.02
2023-04-27T01:32:56.467Z,65.05
2023-04-27T01:35:26.292Z,66.92
2023-04-27T01:37:55.569Z,66.49
2023-04-27T01:40:23.478Z,67.19
2023-04-27T01:42:52.750Z,67.80
2023-04-27T01:45:20.674Z,67.60
2023-04-27T01:47:48.597Z,67.95
2023-04-27T01:50:16.486Z,67.60
2023-04-27T01:52:44.428Z,67.89
2023-04-27T01:55:12.273Z,67.50
2023-04-27T01:57:40.322Z,67.18
2023-04-27T02:00:10.990Z,67.09
2023-04-27T02:02:53.721Z,68.14
2023-04-27T02:05:22.159Z,67.66
2023-04-27T02:07:51.065Z,67.91
2023-04-27T02:10:19.411Z,67.89
2023-04-27T02:12:47.250Z,66.73
2023-04-27T02:15:16.646Z,66.53
2023-04-27T02:17:46.324Z,67.02
2023-04-27T02:20:14.704Z,67.01
2023-04-27T02:22:43.862Z,66.70
2023-04-27T02:25:12.042Z,66.77
2023-04-27T02:27:40.189Z,67.41
2023-04-27T02:30:10.196Z,68.14
2023-04-27T02:32:40.084Z,67.89
2023-04-27T02:35:08.951Z,68.54
2023-04-27T02:37:39.176Z,67.94
2023-04-27T02:40:09.446Z,66.92
2023-04-27T02:42:38.905Z,67.02
2023-04-27T02:45:08.773Z,68.39
2023-04-27T02:47:39.089Z,68.71
2023-04-27T02:50:07.969Z,68.49
2023-04-27T02:52:36.834Z,67.51
2023-04-27T02:55:04.841Z,67.58
2023-04-27T02:57:32.734Z,66.84
2023-04-27T03:00:00.810Z,66.99
2023-04-27T03:02:29.227Z,67.46
2023-04-27T03:04:59.310Z,67.20
2023-04-27T03:07:27.725Z,67.79
2023-04-27T03:09:55.692Z,67.99
2023-04-27T03:12:23.616Z,68.00
2023-04-27T03:14:51.684Z,68.68
2023-04-27T03:17:19.830Z,68.95
2023-04-27T03:19:49.851Z,67.90
2023-04-27T03:22:19.257Z,67.85
2023-04-27T03:24:47.143Z,68.25
2023-04-27T03:27:15.188Z,68.98
2023-04-27T03:29:43.669Z,69.37
2023-04-27T03:32:12.978Z,68.68
2023-04-27T03:34:41.387Z,68.42
2023-04-27T03:37:09.645Z,68.78
2023-04-27T03:39:39.658Z,69.13
2023-04-27T03:42:07.605Z,68.82
2023-04-27T03:44:36.466Z,69.04
2023-04-27T03:47:09.075Z,68.93
2023-04-27T03:49:39.088Z,68.27
2023-04-27T03:52:08.404Z,68.43
2023-04-27T03:54:37.134Z,68.89
2023-04-27T03:57:06.477Z,69.42
2023-04-27T03:59:34.415Z,69.43
2023-04-27T04:02:03.918Z,68.39
2023-04-27T04:04:32.384Z,69.46
2023-04-27T04:07:00.334Z,70.29
2023-04-27T04:09:28.746Z,70.09
2023-04-27T04:11:57.887Z,69.86
2023-04-27T04:14:28.716Z,70.11
2023-04-27T04:16:57.116Z,69.44
2023-04-27T04:19:25.794Z,69.26
2023-04-27T04:21:54.722Z,70.26
2023-04-27T04:24:22.666Z,70.66
2023-04-27T04:26:50.557Z,70.12
2023-04-27T04:29:19.352Z,69.47
2023-04-27T04:31:48.669Z,69.84
2023-04-27T04:34:16.584Z,70.63
2023-04-27T04:36:44.714Z,70.11
2023-04-27T04:39:13.729Z,69.31
2023-04-27T04:41:42.118Z,68.20
2023-04-27T04:44:12.255Z,67.37
2023-04-27T04:46:40.216Z,67.01
2023-04-27T04:49:09.646Z,66.89
2023-04-27T04:51:37.996Z,66.48
2023-04-27T04:54:07.078Z,67.25
2023-04-27T04:56:35.073Z,67.69
2023-04-27T04:59:04.382Z,66.75
2023-04-27T05:01:33.429Z,66.17
2023-04-27T05:04:01.588Z,65.60
2023-04-27T05:06:31.783Z,65.92
2023-04-27T05:08:59.690Z,66.18
2023-04-27T05:11:27.620Z,66.41
2023-04-27T05:13:56.008Z,66.52
2023-04-27T05:16:23.986Z,66.90
2023-04-27T05:18:51.946Z,65.63
2023-04-27T05:21:20.910Z,65.32
2023-04-27T05:23:50.252Z,65.81
2023-04-27T05:26:19.280Z,65.07
2023-04-27T05:28:49.299Z,64.77
2023-04-27T05:31:17.280Z,64.88
2023-04-27T05:33:45.652Z,63.71
2023-04-27T05:36:13.668Z,63.13
2023-04-27T05:38:41.630Z,61.75
2023-04-27T05:41:11.046Z,61.51
2023-04-27T05:43:39.255Z,61.01
2023-04-27T05:46:07.240Z,59.95
2023-04-27T05:48:35.567Z,59.71
2023-04-27T05:51:04.433Z,59.62
2023-04-27T05:53:33.977Z,58.40
2023-04-27T05:56:04.342Z,57.94
2023-04-27T05:58:34.102Z,57.38
2023-04-27T06:01:03.454Z,56.56
2023-04-27T06:03:32.229Z,55.66
2023-04-27T06:06:01.863Z,55.48
2023-04-27T06:08:30.745Z,55.57
2023-04-27T06:10:58.716Z,54.52
2023-04-27T06:13:27.022Z,53.71
2023-04-27T06:15:56.404Z,53.19
2023-04-27T06:18:24.377Z,52.39
2023-04-27T06:20:52.225Z,52.19
2023-04-27T06:23:20.415Z,50.71
2023-04-27T06:25:48.566Z,50.16
2023-04-27T06:28:16.514Z,49.15
2023-04-27T06:30:44.446Z,49.22
2023-04-27T06:33:13.759Z,48.41
2023-04-27T06:35:41.964Z,48.50
2023-04-27T06:38:09.935Z,47.70
2023-04-27T06:40:37.951Z,47.05
2023-04-27T06:43:05.837Z,47.16
2023-04-27T06:45:33.719Z,46.12
2023-04-27T06:48:01.672Z,46.55
2023-04-27T06:50:31.103Z,45.87
2023-04-27T06:52:59.045Z,45.31
2023-04-27T06:55:26.945Z,43.77
2023-04-27T06:57:54.855Z,43.72
2023-04-27T07:00:22.892Z,42.69
2023-04-27T07:02:52.509Z,41.91
2023-04-27T07:05:20.528Z,41.82
2023-04-27T07:07:49.869Z,41.29
2023-04-27T07:10:17.819Z,41.07
2023-04-27T07:12:45.737Z,39.69
2023-04-27T07:15:13.707Z,40.42
2023-04-27T07:17:41.756Z,40.70
2023-04-27T07:20:10.410Z,40.76
2023-04-27T07:22:38.284Z,40.05
2023-04-27T07:25:08.465Z,39.72
2023-04-27T07:27:36.679Z,38.98
2023-04-27T07:30:05.843Z,39.01
2023-04-27T07:32:33.918Z,38.86
2023-04-27T07:35:01.863Z,37.81
2023-04-27T07:37:29.895Z,37.88
2023-04-27T07:39:59.592Z,36.71
2023-04-27T07:42:28.919Z,37.52
2023-04-27T07:44:57.483Z,37.62
2023-04-27T07:47:25.486Z,38.46
2023-04-27T07:49:53.319Z,38.84
2023-04-27T07:52:21.383Z,38.78
2023-04-27T07:54:49.245Z,39.14
2023-04-27T07:57:17.166Z,39.19
2023-04-27T07:59:47.444Z,38.91
2023-04-27T08:02:19.599Z,39.54
2023-04-27T08:04:48.453Z,39.54
2023-04-27T08:07:17.615Z,38.18
2023-04-27T08:09:45.891Z,37.29
2023-04-27T08:12:13.814Z,37.51
2023-04-27T08:14:42.023Z,38.44
2023-04-27T08:17:11.817Z,38.32
2023-04-27T08:19:40.200Z,37.26
2023-04-27T08:22:08.598Z,37.16
2023-04-27T08:24:36.545Z,37.96
2023-04-27T08:27:04.770Z,36.80
2023-04-27T08:29:33.040Z,36.66
2023-04-27T08:32:03.324Z,35.60
2023-04-27T08:34:32.767Z,36.65
2023-04-27T08:37:00.674Z,37.51
2023-04-27T08:39:28.812Z,36.07
2023-04-27T08:41:56.936Z,37.25
2023-04-27T08:44:24.854Z,37.32
2023-04-27T08:46:52.997Z,36.70
2023-04-27T08:49:21.885Z,35.23
2023-04-27T08:51:51.352Z,34.98
2023-04-27T08:54:20.678Z,33.85
2023-04-27T08:56:48.717Z,34.54
2023-04-27T08:59:17.890Z,34.45
2023-04-27T09:01:47.061Z,35.56
2023-04-27T09:04:15.872Z,35.43
2023-04-27T09:06:43.976Z,33.27
2023-04-27T09:09:23.445Z,34.69
2023-04-27T09:11:51.451Z,35.49
2023-04-27T09:14:21.318Z,35.23
2023-04-27T09:16:56.177Z,34.28
2023-04-27T09:19:28.568Z,32.55
2023-04-27T09:22:10.936Z,32.39
2023-04-27T09:24:40.434Z,32.70
2023-04-27T09:27:09.350Z,33.22
2023-04-27T09:29:38.838Z,32.18
2023-04-27T09:32:17.724Z,31.01
2023-04-27T09:34:46.109Z,30.71
2023-04-27T09:37:15.313Z,30.41
2023-04-27T09:39:46.188Z,29.95
2023-04-27T09:42:15.918Z,31.73
2023-04-27T09:44:43.888Z,29.50
2023-04-27T09:47:12.179Z,28.29
2023-04-27T09:49:40.212Z,29.12
2023-04-27T09:52:08.154Z,29.47
2023-04-27T09:54:37.604Z,29.29
2023-04-27T09:57:20.109Z,29.36
2023-04-27T10:00:01.705Z,29.37
2023-04-27T10:02:53.159Z,29.56
2023-04-27T10:05:51.918Z,29.13
2023-04-27T10:08:21.267Z,29.92
2023-04-27T10:10:49.957Z,30.01
2023-04-27T10:13:27.442Z,28.93
2023-04-27T10:15:55.514Z,27.72
2023-04-27T10:18:28.659Z,28.35
2023-04-27T10:20:56.594Z,28.51
2023-04-27T10:23:26.430Z,27.35
2023-04-27T10:25:55.793Z,29.39
2023-04-27T10:28:25.214Z,29.07
2023-04-27T10:30:53.172Z,28.01
2023-04-27T10:33:24.829Z,28.50
2023-04-27T10:35:58.032Z,29.47
2023-04-27T10:38:29.675Z,27.16
2023-04-27T10:41:01.563Z,27.19
2023-04-27T10:43:32.081Z,29.00
2023-04-27T10:46:08.756Z,29.15
2023-04-27T10:48:36.850Z,26.01
2023-04-27T10:51:04.926Z,29.46
2023-04-27T10:53:35.772Z,24.83
2023-04-27T10:56:05.198Z,26.11
2023-04-27T10:58:45.364Z,24.72
2023-04-27T11:01:25.252Z,24.68
2023-04-27T11:03:56.485Z,22.67
2023-04-27T11:06:24.721Z,23.10
2023-04-27T11:08:52.710Z,21.61
2023-04-27T11:11:20.991Z,23.20
2023-04-27T11:13:52.856Z,21.38
2023-04-27T11:16:20.909Z,21.37
2023-04-27T11:18:48.827Z,23.88
2023-04-27T11:21:20.410Z,25.48
2023-04-27T11:23:48.689Z,24.55
2023-04-27T11:26:18.080Z,22.47
2023-04-27T11:28:58.021Z,22.67
2023-04-27T11:31:27.919Z,22.35
2023-04-27T11:33:56.347Z,22.69
2023-04-27T11:36:26.709Z,24.13
2023-04-27T11:38:59.867Z,25.78
2023-04-27T11:41:35.176Z,22.64
2023-04-27T11:44:08.412Z,22.21
2023-04-27T11:46:38.836Z,23.17
2023-04-27T11:49:08.833Z,21.41
2023-04-27T11:51:37.666Z,21.20
2023-04-27T11:54:07.291Z,20.19
2023-04-27T11:56:36.660Z,21.97
2023-04-27T11:59:05.276Z,19.97
2023-04-27T12:01:37.952Z,22.77
2023-04-27T12:04:08.305Z,20.41
2023-04-27T12:06:36.540Z,19.16
2023-04-27T12:09:05.382Z,22.10
2023-04-27T12:11:33.916Z,20.49
2023-04-27T12:14:02.212Z,19.61
2023-04-27T12:16:30.209Z,18.95
2023-04-27T12:18:58.346Z,18.14
2023-04-27T12:21:27.666Z,17.30
2023-04-27T12:23:55.839Z,18.29
2023-04-27T12:26:23.926Z,16.37
2023-04-27T12:28:51.764Z,15.54
2023-04-27T12:31:27.658Z,18.33
2023-04-27T12:33:55.905Z,19.16
2023-04-27T12:36:23.983Z,18.44
2023-04-27T12:38:53.418Z,17.20
2023-04-27T12:41:21.481Z,18.17
2023-04-27T12:43:49.529Z,18.04
2023-04-27T12:46:18.312Z,18.62
2023-04-27T12:48:46.416Z,16.78
2023-04-27T12:51:14.626Z,16.96
2023-04-27T12:53:42.556Z,14.64
2023-04-27T12:56:12.551Z,16.31
2023-04-27T12:58:41.709Z,16.13
2023-04-27T13:01:14.795Z,16.34
2023-04-27T13:03:42.997Z,14.98
2023-04-27T13:06:11.396Z,16.05
2023-04-27T13:08:39.820Z,15.36
2023-04-27T13:11:08.072Z,15.87
2023-04-27T13:13:37.416Z,16.10
2023-04-27T13:16:05.531Z,15.44
2023-04-27T13:18:35.028Z,16.70
2023-04-27T13:21:05.184Z,18.21
2023-04-27T13:23:33.181Z,18.27
2023-04-27T13:26:01.350Z,14.67
2023-04-27T13:28:29.398Z,14.95
2023-04-27T13:31:00.183Z,17.02
2023-04-27T13:33:28.513Z,15.82
2023-04-27T13:35:56.496Z,16.00
2023-04-27T13:38:24.721Z,13.51
2023-04-27T13:40:52.688Z,14.66
2023-04-27T13:43:20.577Z,14.70
2023-04-27T13:45:49.572Z,14.98
2023-04-27T13:48:19.384Z,14.49
2023-04-27T13:50:47.677Z,15.38
2023-04-27T13:53:16.710Z,13.90
2023-04-27T13:55:44.759Z,14.05
2023-04-27T13:58:13.329Z,13.65
2023-04-27T14:00:41.418Z,13.24
2023-04-27T14:03:15.621Z,12.80
2023-04-27T14:05:48.276Z,14.61
2023-04-27T14:08:16.354Z,15.00
2023-04-27T14:10:47.111Z,14.30
2023-04-27T14:13:15.393Z,14.26
2023-04-27T14:15:43.392Z,14.19
2023-04-27T14:18:11.582Z,15.77
2023-04-27T14:20:40.317Z,15.39
2023-04-27T14:23:10.528Z,17.39
2023-04-27T14:25:39.173Z,16.04
2023-04-27T14:28:09.619Z,16.57
2023-04-27T14:30:37.578Z,15.98
2023-04-27T14:33:05.568Z,16.03
2023-04-27T14:35:35.563Z,16.50
2023-04-27T14:38:03.745Z,16.81
2023-04-27T14:40:33.618Z,16.21
2023-04-27T14:43:01.587Z,17.50
2023-04-27T14:45:39.732Z,15.74
2023-04-27T14:48:16.434Z,15.35
2023-04-27T14:50:44.299Z,16.67
2023-04-27T14:53:12.242Z,16.58
2023-04-27T14:55:44.153Z,17.15
2023-04-27T14:58:12.168Z,17.69
2023-04-27T15:00:40.974Z,18.21
2023-04-27T15:03:09.102Z,18.76
2023-04-27T15:05:37.218Z,16.87
2023-04-27T15:08:05.114Z,17.74
2023-04-27T15:10:32.980Z,16.85
2023-04-27T15:13:03.099Z,18.52
2023-04-27T15:15:31.107Z,18.17
2023-04-27T15:17:59.544Z,19.09
2023-04-27T15:20:27.628Z,19.49
2023-04-27T15:22:55.606Z,19.36
2023-04-27T15:25:23.563Z,21.58
2023-04-27T15:27:51.475Z,20.41
2023-04-27T15:30:20.773Z,20.72
2023-04-27T15:32:49.547Z,20.75
2023-04-27T15:35:17.582Z,22.36
2023-04-27T15:37:45.576Z,22.42
2023-04-27T15:40:13.804Z,21.87
2023-04-27T15:42:41.797Z,23.25
2023-04-27T15:45:11.034Z,23.19
2023-04-27T15:50:09.380Z,25.22
2023-04-27T15:52:37.311Z,22.69
2023-04-27T15:55:05.945Z,24.55
2023-04-27T15:57:33.808Z,23.42
2023-04-27T16:00:01.829Z,23.07
2023-04-27T16:02:38.747Z,23.03
2023-04-27T16:05:09.516Z,23.60
2023-04-27T16:07:39.444Z,23.79
2023-04-27T16:10:08.714Z,24.58
2023-04-27T16:12:36.722Z,23.95
2023-04-27T16:15:05.017Z,23.58
2023-04-27T16:17:35.798Z,24.51
2023-04-27T16:20:06.420Z,24.82
2023-04-27T16:22:36.113Z,28.28
2023-04-27T16:25:06.535Z,28.88
2023-04-27T16:27:34.531Z,28.77
2023-04-27T16:30:02.482Z,29.15
2023-04-27T16:32:31.469Z,28.31
2023-04-27T16:35:01.022Z,28.08
2023-04-27T16:37:29.031Z,27.46
2023-04-27T16:40:01.373Z,28.69
2023-04-27T16:42:29.741Z,29.11
2023-04-27T16:44:57.737Z,29.77
2023-04-27T16:47:25.626Z,31.33
2023-04-27T16:49:53.469Z,29.16
2023-04-27T16:52:21.396Z,31.11
2023-04-27T16:54:49.302Z,30.45
2023-04-27T16:57:18.753Z,30.54
2023-04-27T16:59:46.740Z,31.70
2023-04-27T17:02:24.314Z,30.13
2023-04-27T17:04:53.448Z,31.13
2023-04-27T17:07:21.472Z,30.45
2023-04-27T17:09:49.656Z,31.37
2023-04-27T17:12:19.062Z,30.68
2023-04-27T17:14:47.238Z,31.69
2023-04-27T17:17:15.167Z,32.26
2023-04-27T17:19:43.060Z,33.06
2023-04-27T17:22:13.320Z,31.56
2023-04-27T17:24:41.399Z,31.36
2023-04-27T17:27:09.351Z,32.27
2023-04-27T17:29:38.635Z,33.23
2023-04-27T17:32:06.809Z,33.07
2023-04-27T17:34:34.700Z,32.87
2023-04-27T17:37:02.791Z,33.18
2023-04-27T17:39:30.742Z,33.93
2023-04-27T17:41:58.839Z,34.15
2023-04-27T17:44:26.771Z,35.88
2023-04-27T17:46:56.354Z,35.03
2023-04-27T17:49:24.399Z,34.70
2023-04-27T17:51:52.357Z,35.56
2023-04-27T17:54:20.277Z,35.95
2023-04-27T17:56:48.215Z,35.62
2023-04-27T17:59:16.496Z,36.18
2023-04-27T18:01:44.738Z,36.29
2023-04-27T18:04:14.093Z,36.07
2023-04-27T18:06:42.376Z,36.64
2023-04-27T18:09:10.286Z,36.33
2023-04-27T18:11:38.265Z,36.50
2023-04-27T18:14:06.162Z,36.90
2023-04-27T18:16:34.152Z,38.00
2023-04-27T18:19:03.226Z,37.63
2023-04-27T18:21:32.730Z,38.00
2023-04-27T18:24:00.751Z,37.16
2023-04-27T18:26:28.734Z,38.83
2023-04-27T18:28:58.555Z,38.12
2023-04-27T18:31:26.788Z,38.31
2023-04-27T18:33:54.884Z,38.23
2023-04-27T18:36:27.866Z,37.37
2023-04-27T18:38:58.371Z,38.25
2023-04-27T18:41:26.605Z,38.48
2023-04-27T18:43:54.593Z,37.92
2023-04-27T18:46:22.535Z,38.95
2023-04-27T18:48:50.441Z,38.60
2023-04-27T18:51:18.321Z,38.74
2023-04-27T18:53:46.413Z,39.61
2023-04-27T18:56:15.731Z,39.02
2023-04-27T18:58:43.942Z,38.71
2023-04-27T19:01:21.114Z,38.76
2023-04-27T19:03:49.391Z,39.00
2023-04-27T19:06:18.942Z,39.11
2023-04-27T19:08:48.801Z,39.85
2023-04-27T19:11:22.054Z,39.58
2023-04-27T19:13:51.458Z,39.77
2023-04-27T19:16:19.491Z,39.17
2023-04-27T19:18:47.648Z,39.59
2023-04-27T19:21:15.533Z,39.91
2023-04-27T19:23:45.073Z,39.70
2023-04-27T19:26:14.152Z,40.05
2023-04-27T19:28:43.855Z,39.78
2023-04-27T19:31:11.796Z,41.04
2023-04-27T19:33:46.844Z,41.00
2023-04-27T19:36:15.160Z,40.69
2023-04-27T19:38:42.987Z,40.78
2023-04-27T19:41:13.874Z,40.63
2023-04-27T19:43:43.354Z,40.91
2023-04-27T19:46:11.399Z,40.99
2023-04-27T19:48:39.511Z,40.38
2023-04-27T19:51:10.337Z,40.85
2023-04-27T19:53:38.312Z,41.08
2023-04-27T19:56:06.496Z,40.58
2023-04-27T19:58:35.901Z,40.76
2023-04-27T20:01:06.285Z,40.52
2023-04-27T20:03:35.713Z,40.83
2023-04-27T20:06:04.315Z,40.91
2023-04-27T20:08:34.090Z,41.04
2023-04-27T20:11:02.186Z,41.26
2023-04-27T20:13:30.056Z,41.60
2023-04-27T20:15:59.200Z,41.42
2023-04-27T20:18:31.866Z,41.73
2023-04-27T20:20:59.842Z,42.00
2023-04-27T20:23:27.797Z,40.70
2023-04-27T20:25:55.849Z,40.68
2023-04-27T20:28:23.861Z,41.24
2023-04-27T20:30:51.688Z,41.06
2023-04-27T20:33:33.947Z,41.25
2023-04-27T20:36:14.058Z,41.55
2023-04-27T20:38:45.988Z,41.59
2023-04-27T20:41:14.421Z,41.90
2023-04-27T20:43:44.715Z,42.48
2023-04-27T20:46:13.203Z,43.13
2023-04-27T20:48:41.314Z,41.68
2023-04-27T20:51:10.804Z,42.10
2023-04-27T20:53:39.993Z,41.79
2023-04-27T20:56:09.087Z,42.08
2023-04-27T20:58:36.985Z,42.67
2023-04-27T21:01:05.046Z,42.62
2023-04-27T21:03:33.292Z,43.41
2023-04-27T21:06:01.459Z,42.97
2023-04-27T21:08:30.827Z,42.72
2023-04-27T21:10:58.720Z,43.39
2023-04-27T21:13:26.844Z,44.72
2023-04-27T21:15:54.804Z,44.10
2023-04-27T21:18:30.302Z,43.90
2023-04-27T21:20:58.769Z,44.62
2023-04-27T21:23:26.849Z,44.30
2023-04-27T21:25:56.261Z,44.28
2023-04-27T21:28:24.316Z,44.20
2023-04-27T21:30:52.328Z,44.27
2023-04-27T21:33:20.344Z,44.19
2023-04-27T21:35:51.481Z,44.86
2023-04-27T21:38:19.464Z,44.58
2023-04-27T21:40:51.288Z,44.72
2023-04-27T21:43:20.582Z,45.45
2023-04-27T21:45:48.684Z,45.22
2023-04-27T21:48:16.622Z,45.45
2023-04-27T21:50:45.222Z,45.73
2023-04-27T21:53:13.122Z,47.11
2023-04-27T21:55:41.096Z,47.73
2023-04-27T21:58:09.078Z,48.17
2023-04-27T22:00:38.383Z,48.70
2023-04-27T22:03:06.378Z,48.90
2023-04-27T22:05:37.059Z,48.47
2023-04-27T22:08:05.296Z,49.95
2023-04-27T22:10:33.313Z,50.16
2023-04-27T22:13:08.273Z,50.07
2023-04-27T22:15:46.987Z,49.71
2023-04-27T22:18:15.675Z,49.40
2023-04-27T22:20:44.066Z,49.68
2023-04-27T22:23:12.043Z,50.84
2023-04-27T22:25:42.816Z,51.52
2023-04-27T22:28:11.279Z,51.79
2023-04-27T22:30:40.756Z,51.78
2023-04-27T22:33:10.557Z,51.86
2023-04-27T22:35:38.713Z,52.18
2023-04-27T22:38:07.041Z,52.39
2023-04-27T22:40:35.102Z,52.30
2023-04-27T22:43:02.985Z,52.55
2023-04-27T22:45:31.024Z,53.08
2023-04-27T22:47:59.023Z,53.03
2023-04-27T22:50:28.345Z,53.35
2023-04-27T22:52:56.282Z,53.18
2023-04-27T22:55:24.224Z,53.56
2023-04-27T22:57:53.823Z,53.28
2023-04-27T23:00:22.086Z,54.45
2023-04-27T23:02:50.226Z,54.56
2023-04-27T23:05:18.301Z,54.94
2023-04-27T23:07:47.781Z,54.57
2023-04-27T23:10:15.715Z,54.24
2023-04-27T23:12:43.622Z,53.22
2023-04-27T23:15:12.571Z,49.91
2023-04-27T23:17:40.490Z,48.82
2023-04-27T23:20:24.029Z,50.44
2023-04-27T23:22:56.352Z,47.54
2023-04-27T23:25:24.340Z,46.91
2023-04-27T23:27:52.878Z,47.18
2023-04-27T23:30:21.840Z,46.82
2023-04-27T23:32:50.008Z,45.95
2023-04-27T23:35:18.165Z,45.96
2023-04-27T23:37:46.089Z,46.38
2023-04-27T23:40:15.489Z,45.89
2023-04-27T23:42:43.387Z,45.55
2023-04-27T23:45:12.289Z,46.29
2023-04-27T23:47:40.405Z,46.79
2023-04-27T23:50:09.170Z,47.88
2023-04-27T23:52:37.161Z,51.11
2023-04-27T23:55:05.705Z,48.47
2023-04-27T23:57:34.985Z,52.78
